createdAt,value
2023-05-19T00:01:51.525Z,4.93
2023-05-19T00:04:23.976Z,4.80
2023-05-19T00:06:56.944Z,4.43
2023-05-19T00:09:28.932Z,4.32
2023-05-19T00:12:03.420Z,5.28
2023-05-19T00:14:36.405Z,4.45
2023-05-19T00:17:08.231Z,4.38
2023-05-19T00:19:39.801Z,4.72
2023-05-19T00:22:10.722Z,4.70
2023-05-19T00:24:42.238Z,4.90
2023-05-19T00:27:16.050Z,5.07
2023-05-19T00:29:47.260Z,5.40
2023-05-19T00:32:18.830Z,5.07
2023-05-19T00:34:50.235Z,5.40
2023-05-19T00:37:23.141Z,4.20
2023-05-19T00:39:54.397Z,5.47
2023-05-19T00:44:59.263Z,5.20
2023-05-19T00:47:30.236Z,5.00
2023-05-19T00:50:02.245Z,5.38
2023-05-19T00:52:33.368Z,4.72
2023-05-19T00:55:05.581Z,4.53
2023-05-19T00:57:39.270Z,4.72
2023-05-19T01:00:12.157Z,5.13
2023-05-19T01:02:43.881Z,4.82
2023-05-19T01:05:15.840Z,5.32
2023-05-19T01:07:47.458Z,4.47
2023-05-19T01:10:18.726Z,4.68
2023-05-19T01:15:24.196Z,5.22
2023-05-19T01:18:01.993Z,5.35
2023-05-19T01:20:41.902Z,5.22
2023-05-19T01:23:27.350Z,4.85
2023-05-19T01:26:29.863Z,4.50
2023-05-19T01:29:24.349Z,4.38
2023-05-19T01:32:02.349Z,5.00
2023-05-19T01:34:34.871Z,4.28
2023-05-19T01:37:12.145Z,4.10
2023-05-19T01:39:47.228Z,6.53
2023-05-19T01:42:19.829Z,6.70
2023-05-19T01:44:51.520Z,6.75
2023-05-19T01:47:26.469Z,5.25
2023-05-19T01:49:58.131Z,5.20
2023-05-19T01:52:31.140Z,4.75
2023-05-19T01:57:39.317Z,4.95
2023-05-19T02:00:16.929Z,4.90
2023-05-19T02:03:02.578Z,4.05
2023-05-19T02:05:41.527Z,4.20
2023-05-19T02:08:19.536Z,4.38
2023-05-19T02:10:58.412Z,4.05
2023-05-19T02:13:33.629Z,4.20
2023-05-19T02:16:08.704Z,3.53
2023-05-19T02:18:45.776Z,3.60
2023-05-19T02:21:16.971Z,4.18
2023-05-19T02:23:49.852Z,4.05
2023-05-19T02:26:25.830Z,3.50
2023-05-19T02:28:57.014Z,3.80
2023-05-19T02:31:28.884Z,4.30
2023-05-19T02:34:03.697Z,3.70
2023-05-19T02:36:37.456Z,4.32
2023-05-19T02:39:09.159Z,4.15
2023-05-19T02:41:40.189Z,4.63
2023-05-19T02:44:11.818Z,4.40
2023-05-19T02:46:42.738Z,3.67
2023-05-19T02:49:16.672Z,3.92
2023-05-19T02:51:47.760Z,4.80
2023-05-19T02:54:19.020Z,4.18
2023-05-19T02:59:20.910Z,4.40
2023-05-19T03:04:25.665Z,4.03
2023-05-19T03:06:57.732Z,4.10
2023-05-19T03:09:29.331Z,4.38
2023-05-19T03:14:38.042Z,3.70
2023-05-19T03:17:10.964Z,4.18
2023-05-19T03:19:45.987Z,3.08
2023-05-19T03:22:16.893Z,2.70
2023-05-19T03:24:51.361Z,3.33
2023-05-19T03:27:22.537Z,2.83
2023-05-19T03:29:58.378Z,3.63
2023-05-19T03:32:29.853Z,3.70
2023-05-19T03:35:07.630Z,4.10
2023-05-19T03:37:39.509Z,3.67
2023-05-19T03:40:13.033Z,3.30
2023-05-19T03:42:46.563Z,3.67
2023-05-19T03:45:18.008Z,3.50
2023-05-19T03:47:52.968Z,3.42
2023-05-19T03:50:49.797Z,3.78
2023-05-19T03:53:26.681Z,3.15
2023-05-19T03:55:57.977Z,3.15
2023-05-19T03:58:30.351Z,3.20
2023-05-19T04:01:01.611Z,2.83
2023-05-19T04:03:32.692Z,3.33
2023-05-19T04:06:06.886Z,3.47
2023-05-19T04:08:37.750Z,3.72
2023-05-19T04:11:09.187Z,3.00
2023-05-19T04:18:42.683Z,3.15
2023-05-19T04:21:16.510Z,3.70
2023-05-19T04:23:47.537Z,3.25
2023-05-19T04:26:19.955Z,3.28
2023-05-19T04:28:53.025Z,3.72
2023-05-19T04:31:24.544Z,3.65
2023-05-19T04:33:56.115Z,3.42
2023-05-19T04:36:31.606Z,3.47
2023-05-19T04:39:03.356Z,3.38
2023-05-19T04:41:37.331Z,3.78
2023-05-19T04:44:10.649Z,3.47
2023-05-19T04:46:43.088Z,3.15
2023-05-19T04:49:14.807Z,2.90
2023-05-19T04:51:51.532Z,2.60
2023-05-19T04:56:59.905Z,2.38
2023-05-19T04:59:35.905Z,33.28
2023-05-19T05:02:08.207Z,25.85
2023-05-19T05:04:44.350Z,3.00
2023-05-19T05:07:18.621Z,2.30
2023-05-19T05:09:52.081Z,1.73
2023-05-19T05:12:24.652Z,1.70
2023-05-19T05:14:56.564Z,1.88
2023-05-19T05:17:28.637Z,1.60
2023-05-19T05:20:01.661Z,1.65
2023-05-19T05:22:36.890Z,1.90
2023-05-19T05:25:09.184Z,1.30
2023-05-19T05:27:41.094Z,1.70
2023-05-19T05:30:13.537Z,1.70
2023-05-19T05:32:46.585Z,2.63
2023-05-19T05:35:32.649Z,1.67
2023-05-19T05:38:09.185Z,1.90
2023-05-19T05:40:41.361Z,2.30
2023-05-19T05:43:16.227Z,2.40
2023-05-19T05:45:52.762Z,2.00
2023-05-19T05:48:25.442Z,2.10
2023-05-19T05:50:57.822Z,2.00
2023-05-19T05:53:38.881Z,1.90
2023-05-19T05:56:11.257Z,1.85
2023-05-19T05:58:49.873Z,2.25
2023-05-19T06:01:21.269Z,3.88
2023-05-19T06:03:52.712Z,3.08
2023-05-19T06:06:27.030Z,2.90
2023-05-19T06:09:02.335Z,2.15
2023-05-19T06:11:34.021Z,2.00
2023-05-19T06:14:05.505Z,4.50
2023-05-19T06:17:05.781Z,2.78
2023-05-19T06:19:37.294Z,2.30
2023-05-19T06:22:08.364Z,2.17
2023-05-19T06:24:42.624Z,2.00
2023-05-19T06:27:14.025Z,2.10
2023-05-19T06:29:45.337Z,2.00
2023-05-19T06:32:17.168Z,2.58
2023-05-19T06:34:54.339Z,2.83
2023-05-19T06:37:26.158Z,1.95
2023-05-19T06:40:00.208Z,2.30
2023-05-19T06:42:31.519Z,2.47
2023-05-19T06:45:13.353Z,2.65
2023-05-19T06:47:45.424Z,2.60
2023-05-19T06:50:17.393Z,2.67
2023-05-19T06:52:50.164Z,3.15
2023-05-19T06:55:24.256Z,2.90
2023-05-19T06:57:55.184Z,4.07
2023-05-19T07:00:26.856Z,3.90
2023-05-19T07:02:58.605Z,3.47
2023-05-19T07:05:30.052Z,3.28
2023-05-19T07:08:02.870Z,3.17
2023-05-19T07:10:36.808Z,3.22
2023-05-19T07:13:12.548Z,2.97
2023-05-19T07:15:43.932Z,3.15
2023-05-19T07:20:45.853Z,2.88
2023-05-19T07:25:53.382Z,2.70
2023-05-19T07:28:24.247Z,3.00
2023-05-19T07:30:55.504Z,3.95
2023-05-19T07:33:29.780Z,3.95
2023-05-19T07:36:01.241Z,3.38
2023-05-19T07:38:34.899Z,3.13
2023-05-19T07:41:09.110Z,3.30
2023-05-19T07:43:40.592Z,3.13
2023-05-19T07:46:12.101Z,2.97
2023-05-19T07:53:45.104Z,2.72
2023-05-19T07:56:19.053Z,2.92
2023-05-19T07:58:50.249Z,3.05
2023-05-19T08:01:21.492Z,2.88
2023-05-19T08:06:23.603Z,2.42
2023-05-19T08:11:28.497Z,1.90
2023-05-19T08:13:59.386Z,2.40
2023-05-19T08:16:30.886Z,1.92
2023-05-19T08:19:02.980Z,2.28
2023-05-19T08:21:34.836Z,2.10
2023-05-19T08:24:06.630Z,2.10
2023-05-19T08:26:40.641Z,2.08
2023-05-19T08:29:11.784Z,1.90
2023-05-19T08:31:43.128Z,2.00
2023-05-19T08:34:14.004Z,1.80
2023-05-19T08:36:45.583Z,2.00
2023-05-19T08:39:19.435Z,2.00
2023-05-19T08:41:53.683Z,2.40
2023-05-19T08:44:24.849Z,1.80
2023-05-19T08:46:58.658Z,2.45
2023-05-19T08:49:31.343Z,2.28
2023-05-19T08:52:11.858Z,1.45
2023-05-19T08:54:51.150Z,2.38
2023-05-19T08:57:28.214Z,2.28
2023-05-19T09:00:00.883Z,2.28
2023-05-19T09:02:32.737Z,1.90
2023-05-19T09:05:04.452Z,2.00
2023-05-19T09:07:38.151Z,2.05
2023-05-19T09:10:14.564Z,2.10
2023-05-19T09:12:50.496Z,2.13
2023-05-19T09:15:22.032Z,1.95
2023-05-19T09:18:09.306Z,2.20
2023-05-19T09:20:42.580Z,2.00
2023-05-19T09:23:17.064Z,1.85
2023-05-19T09:26:03.309Z,2.10
2023-05-19T09:28:38.817Z,1.90
2023-05-19T09:31:10.854Z,1.70
2023-05-19T09:33:45.924Z,1.85
2023-05-19T09:36:17.680Z,1.70
2023-05-19T09:38:49.568Z,1.90
2023-05-19T09:41:20.573Z,1.88
2023-05-19T09:43:58.199Z,1.90
2023-05-19T09:46:30.534Z,2.13
2023-05-19T09:49:04.616Z,2.03
2023-05-19T09:51:36.316Z,2.53
2023-05-19T09:54:07.710Z,1.90
2023-05-19T09:56:39.797Z,2.78
2023-05-19T09:59:14.433Z,1.63
2023-05-19T10:01:47.063Z,1.75
2023-05-19T10:04:19.699Z,1.80
2023-05-19T10:06:53.941Z,1.90
2023-05-19T10:09:27.857Z,2.03
2023-05-19T10:11:59.888Z,1.60
2023-05-19T10:14:33.808Z,1.98
2023-05-19T10:17:04.844Z,1.92
2023-05-19T10:19:37.376Z,1.95
2023-05-19T10:22:08.968Z,1.90
2023-05-19T10:24:40.329Z,1.70
2023-05-19T10:27:14.739Z,1.90
2023-05-19T10:29:53.159Z,1.70
2023-05-19T10:32:28.556Z,1.58
2023-05-19T10:35:32.466Z,1.60
2023-05-19T10:38:16.636Z,1.58
2023-05-19T10:41:06.035Z,1.48
2023-05-19T10:43:52.821Z,1.88
2023-05-19T10:46:30.368Z,2.20
2023-05-19T10:49:02.486Z,1.88
2023-05-19T10:51:34.936Z,2.53
2023-05-19T10:54:08.477Z,1.58
2023-05-19T10:56:43.277Z,2.10
2023-05-19T10:59:34.488Z,2.70
2023-05-19T11:02:11.510Z,3.05
2023-05-19T11:04:50.265Z,2.60
2023-05-19T11:07:25.065Z,2.30
2023-05-19T11:09:56.548Z,2.20
2023-05-19T11:12:28.053Z,1.90
2023-05-19T11:15:01.307Z,1.90
2023-05-19T11:17:35.989Z,1.75
2023-05-19T11:20:11.286Z,2.00
2023-05-19T11:22:43.740Z,1.90
2023-05-19T11:25:14.861Z,1.75
2023-05-19T11:27:49.869Z,1.65
2023-05-19T11:30:21.959Z,1.55
2023-05-19T11:32:58.087Z,1.60
2023-05-19T11:35:31.447Z,1.50
2023-05-19T11:38:04.626Z,1.70
2023-05-19T11:40:36.262Z,1.85
2023-05-19T11:43:07.646Z,1.80
2023-05-19T11:45:38.832Z,1.67
2023-05-19T11:48:16.278Z,1.70
2023-05-19T11:50:47.516Z,2.00
2023-05-19T11:53:20.167Z,1.75
2023-05-19T11:55:52.156Z,2.67
2023-05-19T11:58:30.035Z,2.70
2023-05-19T12:01:04.318Z,1.63
2023-05-19T12:03:38.503Z,1.90
2023-05-19T12:06:10.610Z,3.13
2023-05-19T12:08:42.051Z,1.88
2023-05-19T12:11:13.748Z,2.05
2023-05-19T12:13:45.225Z,1.55
2023-05-19T12:16:16.438Z,1.67
2023-05-19T12:18:50.420Z,1.77
2023-05-19T12:21:21.717Z,2.33
2023-05-19T12:23:53.050Z,1.70
2023-05-19T12:26:24.466Z,3.28
2023-05-19T12:28:55.707Z,1.88
2023-05-19T12:34:04.797Z,1.80
2023-05-19T12:36:35.698Z,1.95
2023-05-19T12:39:09.798Z,1.70
2023-05-19T12:41:40.780Z,1.40
2023-05-19T12:44:18.639Z,1.67
2023-05-19T12:46:49.578Z,1.58
2023-05-19T12:49:23.608Z,1.40
2023-05-19T12:51:56.007Z,2.22
2023-05-19T12:54:27.499Z,1.58
2023-05-19T12:57:01.776Z,1.50
2023-05-19T12:59:38.981Z,1.65
2023-05-19T13:02:10.119Z,1.63
2023-05-19T13:04:44.740Z,2.60
2023-05-19T13:07:15.650Z,5.32
2023-05-19T13:09:46.874Z,2.05
2023-05-19T13:14:48.766Z,3.25
2023-05-19T13:17:19.797Z,9.80
2023-05-19T13:19:53.833Z,6.18
2023-05-19T13:22:24.769Z,3.30
2023-05-19T13:24:59.166Z,2.88
2023-05-19T13:27:30.052Z,2.28
2023-05-19T13:30:01.384Z,2.17
2023-05-19T13:32:32.476Z,3.75
2023-05-19T13:35:07.059Z,5.55
2023-05-19T13:37:38.085Z,3.30
2023-05-19T13:40:11.114Z,1.90
2023-05-19T13:42:42.440Z,4.50
2023-05-19T13:45:14.359Z,5.60
2023-05-19T13:47:45.494Z,2.92
2023-05-19T13:50:19.310Z,2.30
2023-05-19T13:52:50.284Z,1.52
2023-05-19T13:55:21.708Z,2.30
2023-05-19T13:57:52.782Z,1.70
2023-05-19T14:00:24.410Z,1.88
2023-05-19T14:02:55.906Z,1.75
2023-05-19T14:05:31.389Z,2.10
2023-05-19T14:08:04.143Z,1.77
2023-05-19T14:10:35.861Z,2.00
2023-05-19T14:13:31.573Z,1.98
2023-05-19T14:16:05.062Z,1.80
2023-05-19T14:18:36.051Z,1.60
2023-05-19T14:21:09.926Z,2.30
2023-05-19T14:23:43.463Z,2.10
2023-05-19T14:26:14.876Z,1.67
2023-05-19T14:28:46.026Z,1.48
2023-05-19T14:31:22.661Z,1.80
2023-05-19T14:33:54.597Z,1.40
2023-05-19T14:36:29.593Z,1.40
2023-05-19T14:39:01.933Z,1.50
2023-05-19T14:41:33.145Z,1.70
2023-05-19T14:44:04.129Z,2.08
2023-05-19T14:46:35.538Z,2.03
2023-05-19T14:49:06.883Z,1.80
2023-05-19T14:51:40.778Z,2.30
2023-05-19T14:54:11.663Z,2.40
2023-05-19T14:56:42.851Z,2.15
2023-05-19T15:01:44.827Z,3.15
2023-05-19T15:04:15.964Z,2.95
2023-05-19T15:06:58.257Z,2.92
2023-05-19T15:09:40.024Z,2.40
2023-05-19T15:12:11.430Z,1.95
2023-05-19T15:14:42.299Z,3.03
2023-05-19T15:17:13.701Z,2.38
2023-05-19T15:19:47.907Z,3.10
2023-05-19T15:22:22.269Z,5.00
2023-05-19T15:24:53.413Z,3.15
2023-05-19T15:27:25.426Z,2.67
2023-05-19T15:29:56.625Z,5.40
2023-05-19T15:32:28.113Z,3.80
2023-05-19T15:34:59.051Z,4.35
2023-05-19T15:37:33.031Z,4.35
2023-05-19T15:40:04.025Z,3.65
2023-05-19T15:42:35.251Z,4.50
2023-05-19T15:47:37.127Z,5.40
2023-05-19T15:52:42.258Z,4.25
2023-05-19T15:55:13.661Z,5.40
2023-05-19T15:57:45.044Z,4.78
2023-05-19T16:00:17.426Z,6.13
2023-05-19T16:02:49.023Z,7.63
2023-05-19T16:05:20.324Z,6.15
2023-05-19T16:07:54.165Z,6.47
2023-05-19T16:10:25.066Z,3.65
2023-05-19T16:12:56.429Z,5.32
2023-05-19T16:15:27.372Z,9.60
2023-05-19T16:17:58.868Z,4.90
2023-05-19T16:20:30.165Z,3.03
2023-05-19T16:23:04.057Z,2.20
2023-05-19T16:25:35.266Z,5.20
2023-05-19T16:28:06.819Z,4.18
2023-05-19T16:30:38.360Z,2.58
2023-05-19T16:33:09.697Z,1.67
2023-05-19T16:38:14.203Z,2.55
2023-05-19T16:40:45.268Z,1.85
2023-05-19T16:43:16.532Z,2.10
2023-05-19T16:48:18.416Z,4.03
2023-05-19T16:50:51.779Z,2.50
2023-05-19T16:53:25.670Z,1.90
2023-05-19T16:55:56.852Z,1.70
2023-05-19T16:58:29.602Z,2.05
2023-05-19T17:01:01.971Z,3.15
2023-05-19T17:03:35.963Z,1.60
2023-05-19T17:06:07.245Z,1.30
2023-05-19T17:08:41.121Z,1.92
2023-05-19T17:11:13.731Z,3.15
2023-05-19T17:13:46.803Z,2.58
2023-05-19T17:16:17.901Z,1.92
2023-05-19T17:18:50.781Z,2.15
2023-05-19T17:21:21.884Z,1.70
2023-05-19T17:23:56.392Z,1.65
2023-05-19T17:26:27.623Z,1.73
2023-05-19T17:28:59.126Z,1.77
2023-05-19T17:31:30.240Z,2.10
2023-05-19T17:34:01.494Z,2.10
2023-05-19T17:39:06.334Z,2.30
2023-05-19T17:41:37.324Z,2.47
2023-05-19T17:44:09.317Z,2.22
2023-05-19T17:46:40.403Z,2.50
2023-05-19T17:49:13.267Z,2.53
2023-05-19T17:51:44.944Z,3.05
2023-05-19T17:54:19.529Z,6.78
2023-05-19T17:56:51.348Z,25.83
2023-05-19T17:59:23.560Z,19.92
2023-05-19T18:01:56.001Z,15.02
2023-05-19T18:04:28.141Z,13.23
2023-05-19T18:06:59.918Z,15.25
2023-05-19T18:09:35.983Z,8.13
2023-05-19T18:12:07.270Z,4.43
2023-05-19T18:14:38.490Z,4.03
2023-05-19T18:19:40.346Z,3.38
2023-05-19T18:24:47.466Z,4.10
2023-05-19T18:27:18.399Z,4.35
2023-05-19T18:29:49.831Z,3.22
2023-05-19T18:32:21.139Z,3.92
2023-05-19T18:34:52.552Z,4.10
2023-05-19T18:37:24.078Z,5.88
2023-05-19T18:39:58.401Z,4.30
2023-05-19T18:42:29.407Z,4.53
2023-05-19T18:45:00.715Z,5.32
2023-05-19T18:50:05.916Z,9.15
2023-05-19T18:52:36.981Z,9.68
2023-05-19T18:55:12.035Z,8.77
2023-05-19T18:57:42.920Z,9.75
2023-05-19T19:00:16.609Z,9.68
2023-05-19T19:02:47.577Z,8.45
2023-05-19T19:05:19.310Z,8.07
2023-05-19T19:07:50.548Z,5.68
2023-05-19T19:10:27.380Z,4.53
2023-05-19T19:12:58.392Z,4.20
2023-05-19T19:15:29.735Z,3.42
2023-05-19T19:20:31.857Z,3.67
2023-05-19T19:23:06.684Z,3.50
2023-05-19T19:25:40.815Z,3.08
2023-05-19T19:28:12.047Z,2.95
2023-05-19T19:30:43.597Z,2.60
2023-05-19T19:33:14.772Z,2.85
2023-05-19T19:35:48.981Z,3.00
2023-05-19T19:38:19.922Z,2.47
2023-05-19T19:40:54.553Z,2.10
2023-05-19T19:43:25.691Z,2.67
2023-05-19T19:46:02.879Z,4.22
2023-05-19T19:48:34.242Z,4.03
2023-05-19T19:51:05.461Z,3.88
2023-05-19T19:56:12.607Z,3.63
2023-05-19T19:58:43.518Z,4.13
2023-05-19T20:01:16.282Z,5.07
2023-05-19T20:03:47.743Z,4.38
2023-05-19T20:06:19.291Z,4.60
2023-05-19T20:13:55.979Z,7.30
2023-05-19T20:16:27.370Z,6.60
2023-05-19T20:18:58.436Z,6.93
2023-05-19T20:21:29.803Z,4.72
2023-05-19T20:26:34.725Z,9.50
2023-05-19T20:29:05.558Z,8.95
2023-05-19T20:31:36.762Z,6.70
2023-05-19T20:36:38.792Z,3.53
2023-05-19T20:41:44.019Z,4.75
2023-05-19T20:44:14.939Z,4.93
2023-05-19T20:46:46.251Z,4.70
2023-05-19T20:51:48.042Z,3.35
2023-05-19T20:56:55.153Z,2.60
2023-05-19T20:59:29.098Z,2.78
2023-05-19T21:02:00.475Z,2.55
2023-05-19T21:07:02.806Z,2.20
2023-05-19T21:09:33.853Z,1.90
2023-05-19T21:12:08.492Z,3.42
2023-05-19T21:14:39.369Z,3.00
2023-05-19T21:17:10.772Z,2.60
2023-05-19T21:19:41.859Z,2.67
2023-05-19T21:22:13.133Z,3.72
2023-05-19T21:29:48.289Z,4.35
2023-05-19T21:32:19.822Z,4.93
2023-05-19T21:34:53.758Z,3.60
2023-05-19T21:37:25.185Z,3.15
2023-05-19T21:39:56.274Z,2.92
2023-05-19T21:42:31.085Z,2.15
2023-05-19T21:45:02.267Z,2.22
2023-05-19T21:47:34.460Z,2.40
2023-05-19T21:50:09.929Z,1.98
2023-05-19T21:52:42.024Z,2.28
2023-05-19T21:55:14.103Z,1.85
2023-05-19T21:57:48.372Z,1.92
2023-05-19T22:00:19.920Z,1.70
2023-05-19T22:02:51.552Z,1.90
2023-05-19T22:05:24.411Z,1.73
2023-05-19T22:08:10.121Z,1.70
2023-05-19T22:11:05.479Z,1.67
2023-05-19T22:13:41.476Z,1.77
2023-05-19T22:16:12.788Z,1.88
2023-05-19T22:18:48.128Z,1.50
2023-05-19T22:21:19.302Z,1.60
2023-05-19T22:23:50.644Z,1.42
2023-05-19T22:28:56.884Z,1.67
2023-05-19T22:31:27.782Z,1.90
2023-05-19T22:33:59.163Z,2.17
2023-05-19T22:36:31.694Z,2.00
2023-05-19T22:39:03.108Z,2.10
2023-05-19T22:41:35.240Z,2.20
2023-05-19T22:44:10.667Z,1.90
2023-05-19T22:46:41.765Z,1.73
2023-05-19T22:49:13.151Z,1.48
2023-05-19T22:51:46.186Z,1.52
2023-05-19T22:54:17.569Z,1.90
2023-05-19T22:59:23.099Z,1.52
2023-05-19T23:01:54.382Z,2.03
2023-05-19T23:04:26.120Z,1.90
2023-05-19T23:06:57.090Z,2.10
2023-05-19T23:09:28.605Z,1.80
2023-05-19T23:11:59.765Z,1.67
2023-05-19T23:14:34.019Z,1.83
2023-05-19T23:17:05.262Z,2.00
2023-05-19T23:19:39.846Z,1.85
2023-05-19T23:22:11.274Z,1.48
2023-05-19T23:24:43.093Z,1.70
2023-05-19T23:29:50.772Z,1.63
2023-05-19T23:32:21.662Z,1.77
2023-05-19T23:34:53.207Z,1.88
2023-05-19T23:37:24.284Z,1.75
2023-05-19T23:39:55.463Z,1.80
2023-05-19T23:45:00.063Z,2.10
2023-05-19T23:47:32.120Z,1.60
2023-05-19T23:50:03.329Z,1.73
2023-05-19T23:52:34.888Z,2.05
2023-05-19T23:55:06.202Z,1.98
